sensor_id;sensor_type;location;lat;lon;timestamp;P1;durP1;ratioP1;P2;durP2;ratioP2
16660;SDS011;8444;52.012;5.048;2023-07-31T00:00:22;18.30;;;5.88;;
16660;SDS011;8444;52.012;5.048;2023-07-31T00:02:48;22.48;;;6.78;;
16660;SDS011;8444;52.012;5.048;2023-07-31T00:05:13;25.88;;;7.63;;
16660;SDS011;8444;52.012;5.048;2023-07-31T00:07:38;32.10;;;8.70;;
16660;SDS011;8444;52.012;5.048;2023-07-31T00:10:03;33.25;;;7.78;;
16660;SDS011;8444;52.012;5.048;2023-07-31T00:15:05;40.60;;;7.88;;
16660;SDS011;8444;52.012;5.048;2023-07-31T00:17:31;34.97;;;7.88;;
16660;SDS011;8444;52.012;5.048;2023-07-31T00:19:56;27.33;;;7.60;;
16660;SDS011;8444;52.012;5.048;2023-07-31T00:22:22;29.10;;;7.88;;
16660;SDS011;8444;52.012;5.048;2023-07-31T00:24:47;21.77;;;7.47;;
16660;SDS011;8444;52.012;5.048;2023-07-31T00:27:12;28.38;;;7.20;;
16660;SDS011;8444;52.012;5.048;2023-07-31T00:29:37;30.77;;;7.85;;
16660;SDS011;8444;52.012;5.048;2023-07-31T00:32:03;22.65;;;7.35;;
16660;SDS011;8444;52.012;5.048;2023-07-31T00:34:28;22.58;;;5.53;;
16660;SDS011;8444;52.012;5.048;2023-07-31T00:36:53;17.73;;;7.32;;
16660;SDS011;8444;52.012;5.048;2023-07-31T00:39:19;23.38;;;6.90;;
16660;SDS011;8444;52.012;5.048;2023-07-31T00:41:44;27.40;;;7.38;;
16660;SDS011;8444;52.012;5.048;2023-07-31T00:44:09;15.88;;;6.28;;
16660;SDS011;8444;52.012;5.048;2023-07-31T00:46:34;19.85;;;5.55;;
16660;SDS011;8444;52.012;5.048;2023-07-31T00:49:00;22.02;;;5.70;;
16660;SDS011;8444;52.012;5.048;2023-07-31T00:51:25;20.85;;;6.57;;
16660;SDS011;8444;52.012;5.048;2023-07-31T00:53:50;19.00;;;5.78;;
16660;SDS011;8444;52.012;5.048;2023-07-31T00:56:16;17.30;;;6.50;;
16660;SDS011;8444;52.012;5.048;2023-07-31T00:58:41;27.33;;;6.95;;
16660;SDS011;8444;52.012;5.048;2023-07-31T01:01:06;19.60;;;6.55;;
16660;SDS011;8444;52.012;5.048;2023-07-31T01:03:32;24.80;;;6.30;;
16660;SDS011;8444;52.012;5.048;2023-07-31T01:11:15;23.23;;;5.88;;
16660;SDS011;8444;52.012;5.048;2023-07-31T01:13:42;22.45;;;6.00;;
16660;SDS011;8444;52.012;5.048;2023-07-31T01:16:07;19.25;;;6.93;;
16660;SDS011;8444;52.012;5.048;2023-07-31T01:18:32;20.00;;;7.25;;
16660;SDS011;8444;52.012;5.048;2023-07-31T01:21:03;27.05;;;7.35;;
16660;SDS011;8444;52.012;5.048;2023-07-31T01:23:40;26.75;;;6.47;;
16660;SDS011;8444;52.012;5.048;2023-07-31T01:26:12;35.90;;;8.02;;
16660;SDS011;8444;52.012;5.048;2023-07-31T01:28:46;21.92;;;7.20;;
16660;SDS011;8444;52.012;5.048;2023-07-31T01:31:14;37.55;;;8.23;;
16660;SDS011;8444;52.012;5.048;2023-07-31T01:33:39;15.85;;;5.93;;
16660;SDS011;8444;52.012;5.048;2023-07-31T01:36:05;14.70;;;4.53;;
16660;SDS011;8444;52.012;5.048;2023-07-31T01:38:30;13.85;;;5.72;;
16660;SDS011;8444;52.012;5.048;2023-07-31T01:40:56;10.80;;;3.50;;
16660;SDS011;8444;52.012;5.048;2023-07-31T01:43:21;12.63;;;4.22;;
16660;SDS011;8444;52.012;5.048;2023-07-31T01:45:46;13.15;;;4.00;;
16660;SDS011;8444;52.012;5.048;2023-07-31T01:48:11;11.48;;;3.25;;
16660;SDS011;8444;52.012;5.048;2023-07-31T01:50:36;14.82;;;4.13;;
16660;SDS011;8444;52.012;5.048;2023-07-31T01:53:02;9.07;;;3.67;;
16660;SDS011;8444;52.012;5.048;2023-07-31T01:55:27;10.52;;;3.70;;
16660;SDS011;8444;52.012;5.048;2023-07-31T01:57:52;7.13;;;3.80;;
16660;SDS011;8444;52.012;5.048;2023-07-31T02:00:18;12.23;;;4.03;;
16660;SDS011;8444;52.012;5.048;2023-07-31T02:02:43;10.80;;;4.55;;
16660;SDS011;8444;52.012;5.048;2023-07-31T02:05:08;13.35;;;5.25;;
16660;SDS011;8444;52.012;5.048;2023-07-31T02:07:33;12.75;;;4.93;;
16660;SDS011;8444;52.012;5.048;2023-07-31T02:09:59;9.43;;;4.32;;
16660;SDS011;8444;52.012;5.048;2023-07-31T02:12:24;19.55;;;6.43;;
16660;SDS011;8444;52.012;5.048;2023-07-31T02:14:49;17.33;;;5.45;;
16660;SDS011;8444;52.012;5.048;2023-07-31T02:17:14;23.90;;;6.05;;
16660;SDS011;8444;52.012;5.048;2023-07-31T02:19:39;20.85;;;6.00;;
16660;SDS011;8444;52.012;5.048;2023-07-31T02:22:05;19.95;;;6.18;;
16660;SDS011;8444;52.012;5.048;2023-07-31T02:24:30;19.85;;;5.35;;
16660;SDS011;8444;52.012;5.048;2023-07-31T02:26:56;18.55;;;5.18;;
16660;SDS011;8444;52.012;5.048;2023-07-31T02:29:22;23.67;;;6.70;;
16660;SDS011;8444;52.012;5.048;2023-07-31T02:31:47;19.42;;;5.65;;
16660;SDS011;8444;52.012;5.048;2023-07-31T02:34:12;18.60;;;6.30;;
16660;SDS011;8444;52.012;5.048;2023-07-31T02:36:37;22.38;;;6.28;;
16660;SDS011;8444;52.012;5.048;2023-07-31T02:39:03;15.20;;;6.40;;
16660;SDS011;8444;52.012;5.048;2023-07-31T02:41:28;19.23;;;6.45;;
16660;SDS011;8444;52.012;5.048;2023-07-31T02:43:53;17.85;;;6.82;;
16660;SDS011;8444;52.012;5.048;2023-07-31T02:46:18;23.38;;;6.50;;
16660;SDS011;8444;52.012;5.048;2023-07-31T02:48:44;27.23;;;6.85;;
16660;SDS011;8444;52.012;5.048;2023-07-31T02:51:09;17.77;;;7.05;;
16660;SDS011;8444;52.012;5.048;2023-07-31T02:53:34;28.27;;;7.47;;
16660;SDS011;8444;52.012;5.048;2023-07-31T02:55:59;15.30;;;6.43;;
16660;SDS011;8444;52.012;5.048;2023-07-31T02:58:25;20.13;;;6.70;;
16660;SDS011;8444;52.012;5.048;2023-07-31T03:00:50;23.52;;;6.45;;
16660;SDS011;8444;52.012;5.048;2023-07-31T03:03:15;29.00;;;7.32;;
16660;SDS011;8444;52.012;5.048;2023-07-31T03:05:40;16.25;;;7.68;;
16660;SDS011;8444;52.012;5.048;2023-07-31T03:08:05;24.58;;;8.05;;
16660;SDS011;8444;52.012;5.048;2023-07-31T03:10:31;15.13;;;7.25;;
16660;SDS011;8444;52.012;5.048;2023-07-31T03:12:56;22.90;;;6.22;;
16660;SDS011;8444;52.012;5.048;2023-07-31T03:15:21;25.08;;;7.22;;
16660;SDS011;8444;52.012;5.048;2023-07-31T03:17:46;25.20;;;7.72;;
16660;SDS011;8444;52.012;5.048;2023-07-31T03:20:12;21.45;;;7.22;;
16660;SDS011;8444;52.012;5.048;2023-07-31T03:22:37;18.52;;;6.18;;
16660;SDS011;8444;52.012;5.048;2023-07-31T03:25:03;22.05;;;7.03;;
16660;SDS011;8444;52.012;5.048;2023-07-31T03:27:28;16.00;;;6.32;;
16660;SDS011;8444;52.012;5.048;2023-07-31T03:29:53;21.80;;;6.85;;
16660;SDS011;8444;52.012;5.048;2023-07-31T03:32:18;16.38;;;6.03;;
16660;SDS011;8444;52.012;5.048;2023-07-31T03:34:44;18.77;;;6.78;;
16660;SDS011;8444;52.012;5.048;2023-07-31T03:37:09;19.08;;;6.47;;
16660;SDS011;8444;52.012;5.048;2023-07-31T03:39:34;13.00;;;5.80;;
16660;SDS011;8444;52.012;5.048;2023-07-31T03:42:00;19.60;;;6.15;;
16660;SDS011;8444;52.012;5.048;2023-07-31T03:44:25;17.50;;;6.53;;
16660;SDS011;8444;52.012;5.048;2023-07-31T03:46:50;26.27;;;6.78;;
16660;SDS011;8444;52.012;5.048;2023-07-31T03:49:15;21.25;;;6.25;;
16660;SDS011;8444;52.012;5.048;2023-07-31T03:51:41;18.25;;;5.28;;
16660;SDS011;8444;52.012;5.048;2023-07-31T03:54:06;16.90;;;5.78;;
16660;SDS011;8444;52.012;5.048;2023-07-31T03:56:32;16.90;;;5.53;;
16660;SDS011;8444;52.012;5.048;2023-07-31T03:58:58;16.25;;;6.00;;
16660;SDS011;8444;52.012;5.048;2023-07-31T04:01:23;13.82;;;6.15;;
16660;SDS011;8444;52.012;5.048;2023-07-31T04:03:48;15.43;;;5.15;;
16660;SDS011;8444;52.012;5.048;2023-07-31T04:06:13;18.05;;;6.30;;
16660;SDS011;8444;52.012;5.048;2023-07-31T04:08:42;16.95;;;6.40;;
16660;SDS011;8444;52.012;5.048;2023-07-31T04:11:08;14.98;;;5.38;;
16660;SDS011;8444;52.012;5.048;2023-07-31T04:13:33;16.42;;;5.75;;
16660;SDS011;8444;52.012;5.048;2023-07-31T04:15:58;14.30;;;6.03;;
16660;SDS011;8444;52.012;5.048;2023-07-31T04:18:24;16.00;;;5.80;;
16660;SDS011;8444;52.012;5.048;2023-07-31T04:20:49;17.10;;;6.65;;
16660;SDS011;8444;52.012;5.048;2023-07-31T04:23:15;19.83;;;6.00;;
16660;SDS011;8444;52.012;5.048;2023-07-31T04:25:40;19.05;;;5.97;;
16660;SDS011;8444;52.012;5.048;2023-07-31T04:28:05;19.88;;;6.05;;
16660;SDS011;8444;52.012;5.048;2023-07-31T04:30:30;19.88;;;8.20;;
16660;SDS011;8444;52.012;5.048;2023-07-31T04:32:55;16.20;;;6.22;;
16660;SDS011;8444;52.012;5.048;2023-07-31T04:35:21;18.33;;;5.20;;
16660;SDS011;8444;52.012;5.048;2023-07-31T04:37:46;18.55;;;6.05;;
16660;SDS011;8444;52.012;5.048;2023-07-31T04:40:13;16.38;;;6.03;;
16660;SDS011;8444;52.012;5.048;2023-07-31T04:42:39;10.35;;;5.35;;
16660;SDS011;8444;52.012;5.048;2023-07-31T04:45:04;14.55;;;5.57;;
16660;SDS011;8444;52.012;5.048;2023-07-31T04:47:30;16.00;;;6.15;;
16660;SDS011;8444;52.012;5.048;2023-07-31T04:49:55;9.30;;;4.90;;
16660;SDS011;8444;52.012;5.048;2023-07-31T04:52:20;14.48;;;5.30;;
16660;SDS011;8444;52.012;5.048;2023-07-31T04:54:45;14.20;;;4.78;;
16660;SDS011;8444;52.012;5.048;2023-07-31T04:57:10;12.73;;;4.78;;
16660;SDS011;8444;52.012;5.048;2023-07-31T04:59:36;13.65;;;5.80;;
16660;SDS011;8444;52.012;5.048;2023-07-31T05:02:01;10.55;;;4.00;;
16660;SDS011;8444;52.012;5.048;2023-07-31T05:04:27;8.93;;;3.88;;
16660;SDS011;8444;52.012;5.048;2023-07-31T05:06:52;8.02;;;3.83;;
16660;SDS011;8444;52.012;5.048;2023-07-31T05:09:17;12.45;;;5.47;;
16660;SDS011;8444;52.012;5.048;2023-07-31T05:11:43;15.85;;;4.10;;
16660;SDS011;8444;52.012;5.048;2023-07-31T05:14:08;15.75;;;4.47;;
16660;SDS011;8444;52.012;5.048;2023-07-31T05:16:34;7.93;;;3.63;;
16660;SDS011;8444;52.012;5.048;2023-07-31T05:18:59;9.52;;;4.40;;
16660;SDS011;8444;52.012;5.048;2023-07-31T05:21:24;21.25;;;7.05;;
16660;SDS011;8444;52.012;5.048;2023-07-31T05:23:49;15.75;;;5.57;;
16660;SDS011;8444;52.012;5.048;2023-07-31T05:26:14;18.00;;;5.97;;
16660;SDS011;8444;52.012;5.048;2023-07-31T05:28:40;11.63;;;5.50;;
16660;SDS011;8444;52.012;5.048;2023-07-31T05:31:05;14.48;;;5.95;;
16660;SDS011;8444;52.012;5.048;2023-07-31T05:33:31;11.27;;;4.63;;
16660;SDS011;8444;52.012;5.048;2023-07-31T05:35:56;14.27;;;6.28;;
16660;SDS011;8444;52.012;5.048;2023-07-31T05:38:22;13.85;;;5.15;;
16660;SDS011;8444;52.012;5.048;2023-07-31T05:40:47;45.35;;;12.63;;
16660;SDS011;8444;52.012;5.048;2023-07-31T05:43:13;14.88;;;5.45;;
16660;SDS011;8444;52.012;5.048;2023-07-31T05:45:38;10.80;;;4.75;;
16660;SDS011;8444;52.012;5.048;2023-07-31T05:48:03;13.77;;;5.28;;
16660;SDS011;8444;52.012;5.048;2023-07-31T05:50:29;14.32;;;4.97;;
16660;SDS011;8444;52.012;5.048;2023-07-31T05:52:54;9.07;;;4.93;;
16660;SDS011;8444;52.012;5.048;2023-07-31T05:55:20;10.20;;;4.47;;
16660;SDS011;8444;52.012;5.048;2023-07-31T05:57:45;11.85;;;4.97;;
16660;SDS011;8444;52.012;5.048;2023-07-31T06:00:11;11.10;;;3.70;;
16660;SDS011;8444;52.012;5.048;2023-07-31T06:02:36;9.38;;;4.13;;
16660;SDS011;8444;52.012;5.048;2023-07-31T06:05:02;7.63;;;3.55;;
16660;SDS011;8444;52.012;5.048;2023-07-31T06:07:29;9.57;;;4.47;;
16660;SDS011;8444;52.012;5.048;2023-07-31T06:09:54;8.23;;;3.90;;
16660;SDS011;8444;52.012;5.048;2023-07-31T06:12:20;12.30;;;4.05;;
16660;SDS011;8444;52.012;5.048;2023-07-31T06:14:45;9.30;;;4.18;;
16660;SDS011;8444;52.012;5.048;2023-07-31T06:17:10;9.25;;;4.00;;
16660;SDS011;8444;52.012;5.048;2023-07-31T06:19:36;9.52;;;4.20;;
16660;SDS011;8444;52.012;5.048;2023-07-31T06:22:01;6.28;;;3.50;;
16660;SDS011;8444;52.012;5.048;2023-07-31T06:24:26;6.30;;;3.60;;
16660;SDS011;8444;52.012;5.048;2023-07-31T06:26:51;7.10;;;3.72;;
16660;SDS011;8444;52.012;5.048;2023-07-31T06:29:17;13.77;;;3.90;;
16660;SDS011;8444;52.012;5.048;2023-07-31T06:31:42;6.82;;;3.35;;
16660;SDS011;8444;52.012;5.048;2023-07-31T06:34:07;5.78;;;3.13;;
16660;SDS011;8444;52.012;5.048;2023-07-31T06:36:32;6.65;;;3.70;;
16660;SDS011;8444;52.012;5.048;2023-07-31T06:38:57;7.78;;;3.00;;
16660;SDS011;8444;52.012;5.048;2023-07-31T06:41:23;9.23;;;4.35;;
16660;SDS011;8444;52.012;5.048;2023-07-31T06:43:48;7.85;;;3.20;;
16660;SDS011;8444;52.012;5.048;2023-07-31T06:46:13;9.73;;;3.72;;
16660;SDS011;8444;52.012;5.048;2023-07-31T06:48:38;9.00;;;4.15;;
16660;SDS011;8444;52.012;5.048;2023-07-31T06:51:04;7.32;;;3.65;;
16660;SDS011;8444;52.012;5.048;2023-07-31T06:53:29;5.50;;;3.30;;
16660;SDS011;8444;52.012;5.048;2023-07-31T06:55:55;7.78;;;3.17;;
16660;SDS011;8444;52.012;5.048;2023-07-31T06:58:20;10.40;;;3.60;;
16660;SDS011;8444;52.012;5.048;2023-07-31T07:00:45;9.02;;;3.60;;
16660;SDS011;8444;52.012;5.048;2023-07-31T07:03:10;11.70;;;3.42;;
16660;SDS011;8444;52.012;5.048;2023-07-31T07:05:35;7.38;;;2.83;;
16660;SDS011;8444;52.012;5.048;2023-07-31T07:08:01;5.05;;;2.85;;
16660;SDS011;8444;52.012;5.048;2023-07-31T07:10:26;6.72;;;3.47;;
16660;SDS011;8444;52.012;5.048;2023-07-31T07:12:52;5.90;;;3.00;;
16660;SDS011;8444;52.012;5.048;2023-07-31T07:15:17;6.65;;;3.72;;
16660;SDS011;8444;52.012;5.048;2023-07-31T07:17:43;7.35;;;3.33;;
16660;SDS011;8444;52.012;5.048;2023-07-31T07:20:08;6.93;;;3.40;;
16660;SDS011;8444;52.012;5.048;2023-07-31T07:22:33;5.03;;;3.40;;
16660;SDS011;8444;52.012;5.048;2023-07-31T07:24:58;6.60;;;2.80;;
16660;SDS011;8444;52.012;5.048;2023-07-31T07:27:24;5.35;;;3.33;;
16660;SDS011;8444;52.012;5.048;2023-07-31T07:29:52;5.78;;;2.50;;
16660;SDS011;8444;52.012;5.048;2023-07-31T07:32:17;2.65;;;2.40;;
16660;SDS011;8444;52.012;5.048;2023-07-31T07:34:43;4.70;;;2.75;;
16660;SDS011;8444;52.012;5.048;2023-07-31T07:37:08;4.60;;;2.40;;
16660;SDS011;8444;52.012;5.048;2023-07-31T07:39:34;4.03;;;2.20;;
16660;SDS011;8444;52.012;5.048;2023-07-31T07:41:59;3.80;;;1.85;;
16660;SDS011;8444;52.012;5.048;2023-07-31T07:44:24;2.40;;;1.65;;
16660;SDS011;8444;52.012;5.048;2023-07-31T07:46:49;3.25;;;1.77;;
16660;SDS011;8444;52.012;5.048;2023-07-31T07:49:14;4.30;;;1.63;;
16660;SDS011;8444;52.012;5.048;2023-07-31T07:51:40;4.25;;;2.40;;
16660;SDS011;8444;52.012;5.048;2023-07-31T07:54:05;2.45;;;1.80;;
16660;SDS011;8444;52.012;5.048;2023-07-31T07:56:31;3.13;;;1.52;;
16660;SDS011;8444;52.012;5.048;2023-07-31T07:58:56;1.92;;;1.40;;
16660;SDS011;8444;52.012;5.048;2023-07-31T08:01:21;4.47;;;2.03;;
16660;SDS011;8444;52.012;5.048;2023-07-31T08:03:47;3.00;;;1.80;;
16660;SDS011;8444;52.012;5.048;2023-07-31T08:06:12;3.33;;;1.63;;
16660;SDS011;8444;52.012;5.048;2023-07-31T08:08:38;6.57;;;2.22;;
16660;SDS011;8444;52.012;5.048;2023-07-31T08:11:03;1.80;;;1.45;;
16660;SDS011;8444;52.012;5.048;2023-07-31T08:13:28;1.75;;;1.33;;
16660;SDS011;8444;52.012;5.048;2023-07-31T08:15:54;4.88;;;2.22;;
16660;SDS011;8444;52.012;5.048;2023-07-31T08:18:19;5.13;;;1.98;;
16660;SDS011;8444;52.012;5.048;2023-07-31T08:20:45;3.90;;;1.83;;
16660;SDS011;8444;52.012;5.048;2023-07-31T08:23:10;4.53;;;1.70;;
16660;SDS011;8444;52.012;5.048;2023-07-31T08:25:35;3.15;;;1.60;;
16660;SDS011;8444;52.012;5.048;2023-07-31T08:28:01;1.45;;;1.20;;
16660;SDS011;8444;52.012;5.048;2023-07-31T08:30:26;1.75;;;1.48;;
16660;SDS011;8444;52.012;5.048;2023-07-31T08:32:51;1.70;;;1.60;;
16660;SDS011;8444;52.012;5.048;2023-07-31T08:35:17;4.30;;;1.55;;
16660;SDS011;8444;52.012;5.048;2023-07-31T08:37:42;7.40;;;1.88;;
16660;SDS011;8444;52.012;5.048;2023-07-31T08:40:07;4.93;;;1.70;;
16660;SDS011;8444;52.012;5.048;2023-07-31T08:42:33;1.90;;;1.25;;
16660;SDS011;8444;52.012;5.048;2023-07-31T08:44:59;1.90;;;1.48;;
16660;SDS011;8444;52.012;5.048;2023-07-31T08:47:25;2.78;;;1.50;;
16660;SDS011;8444;52.012;5.048;2023-07-31T08:49:50;5.95;;;2.83;;
16660;SDS011;8444;52.012;5.048;2023-07-31T08:52:17;4.13;;;2.45;;
16660;SDS011;8444;52.012;5.048;2023-07-31T08:54:42;9.10;;;2.55;;
16660;SDS011;8444;52.012;5.048;2023-07-31T08:57:07;3.65;;;1.63;;
16660;SDS011;8444;52.012;5.048;2023-07-31T08:59:34;4.13;;;2.58;;
16660;SDS011;8444;52.012;5.048;2023-07-31T09:02:06;2.53;;;1.50;;
16660;SDS011;8444;52.012;5.048;2023-07-31T09:04:32;2.30;;;1.52;;
16660;SDS011;8444;52.012;5.048;2023-07-31T09:06:59;5.78;;;2.90;;
16660;SDS011;8444;52.012;5.048;2023-07-31T09:09:25;4.35;;;2.38;;
16660;SDS011;8444;52.012;5.048;2023-07-31T09:11:50;4.00;;;2.30;;
16660;SDS011;8444;52.012;5.048;2023-07-31T09:14:15;5.40;;;2.50;;
16660;SDS011;8444;52.012;5.048;2023-07-31T09:16:51;5.28;;;2.22;;
16660;SDS011;8444;52.012;5.048;2023-07-31T09:19:24;2.50;;;2.30;;
16660;SDS011;8444;52.012;5.048;2023-07-31T09:21:49;4.55;;;2.50;;
16660;SDS011;8444;52.012;5.048;2023-07-31T09:24:24;3.05;;;2.65;;
16660;SDS011;8444;52.012;5.048;2023-07-31T09:26:49;4.03;;;2.03;;
16660;SDS011;8444;52.012;5.048;2023-07-31T09:29:18;2.47;;;2.08;;
16660;SDS011;8444;52.012;5.048;2023-07-31T09:31:44;5.53;;;1.98;;
16660;SDS011;8444;52.012;5.048;2023-07-31T09:34:10;3.72;;;1.77;;
16660;SDS011;8444;52.012;5.048;2023-07-31T09:36:45;3.42;;;1.67;;
16660;SDS011;8444;52.012;5.048;2023-07-31T09:39:11;2.55;;;1.60;;
16660;SDS011;8444;52.012;5.048;2023-07-31T09:41:40;3.05;;;2.35;;
16660;SDS011;8444;52.012;5.048;2023-07-31T09:44:05;3.17;;;2.22;;
16660;SDS011;8444;52.012;5.048;2023-07-31T09:46:31;2.20;;;1.92;;
16660;SDS011;8444;52.012;5.048;2023-07-31T09:49:11;3.00;;;2.30;;
16660;SDS011;8444;52.012;5.048;2023-07-31T09:51:37;5.18;;;3.00;;
16660;SDS011;8444;52.012;5.048;2023-07-31T09:54:16;4.75;;;2.83;;
16660;SDS011;8444;52.012;5.048;2023-07-31T09:56:45;3.80;;;2.75;;
16660;SDS011;8444;52.012;5.048;2023-07-31T09:59:11;4.95;;;3.63;;
16660;SDS011;8444;52.012;5.048;2023-07-31T10:01:37;5.60;;;3.08;;
16660;SDS011;8444;52.012;5.048;2023-07-31T10:04:03;4.10;;;3.00;;
16660;SDS011;8444;52.012;5.048;2023-07-31T10:06:29;5.10;;;3.60;;
16660;SDS011;8444;52.012;5.048;2023-07-31T10:08:54;6.68;;;3.63;;
16660;SDS011;8444;52.012;5.048;2023-07-31T10:11:19;4.75;;;3.30;;
16660;SDS011;8444;52.012;5.048;2023-07-31T10:13:45;8.20;;;3.60;;
16660;SDS011;8444;52.012;5.048;2023-07-31T10:16:11;6.15;;;3.30;;
16660;SDS011;8444;52.012;5.048;2023-07-31T10:18:37;4.50;;;3.83;;
16660;SDS011;8444;52.012;5.048;2023-07-31T10:21:03;4.40;;;3.38;;
16660;SDS011;8444;52.012;5.048;2023-07-31T10:23:29;4.35;;;3.40;;
16660;SDS011;8444;52.012;5.048;2023-07-31T10:25:55;5.80;;;3.58;;
16660;SDS011;8444;52.012;5.048;2023-07-31T10:28:20;4.00;;;3.00;;
16660;SDS011;8444;52.012;5.048;2023-07-31T10:30:45;6.22;;;2.72;;
16660;SDS011;8444;52.012;5.048;2023-07-31T10:33:11;4.22;;;3.30;;
16660;SDS011;8444;52.012;5.048;2023-07-31T10:35:36;3.65;;;2.83;;
16660;SDS011;8444;52.012;5.048;2023-07-31T10:38:11;3.38;;;2.70;;
16660;SDS011;8444;52.012;5.048;2023-07-31T10:40:36;6.10;;;2.90;;
16660;SDS011;8444;52.012;5.048;2023-07-31T10:43:02;5.50;;;2.72;;
16660;SDS011;8444;52.012;5.048;2023-07-31T10:50:24;3.70;;;2.20;;
16660;SDS011;8444;52.012;5.048;2023-07-31T10:52:56;5.43;;;3.17;;
16660;SDS011;8444;52.012;5.048;2023-07-31T10:55:26;2.65;;;2.30;;
16660;SDS011;8444;52.012;5.048;2023-07-31T10:57:52;4.18;;;2.58;;
16660;SDS011;8444;52.012;5.048;2023-07-31T11:00:19;3.33;;;3.03;;
16660;SDS011;8444;52.012;5.048;2023-07-31T11:03:07;3.65;;;2.80;;
16660;SDS011;8444;52.012;5.048;2023-07-31T11:08:18;6.30;;;3.78;;
16660;SDS011;8444;52.012;5.048;2023-07-31T11:10:44;3.67;;;3.08;;
16660;SDS011;8444;52.012;5.048;2023-07-31T11:13:10;6.68;;;3.85;;
16660;SDS011;8444;52.012;5.048;2023-07-31T11:15:35;4.65;;;3.40;;
16660;SDS011;8444;52.012;5.048;2023-07-31T11:18:01;3.67;;;3.17;;
16660;SDS011;8444;52.012;5.048;2023-07-31T11:20:31;4.07;;;3.50;;
16660;SDS011;8444;52.012;5.048;2023-07-31T11:22:58;4.88;;;3.30;;
16660;SDS011;8444;52.012;5.048;2023-07-31T11:25:23;7.97;;;3.40;;
16660;SDS011;8444;52.012;5.048;2023-07-31T11:27:48;5.70;;;3.28;;
16660;SDS011;8444;52.012;5.048;2023-07-31T11:30:18;4.10;;;3.38;;
16660;SDS011;8444;52.012;5.048;2023-07-31T11:32:43;4.55;;;3.45;;
16660;SDS011;8444;52.012;5.048;2023-07-31T11:35:12;11.52;;;4.63;;
16660;SDS011;8444;52.012;5.048;2023-07-31T11:37:41;4.22;;;3.53;;
16660;SDS011;8444;52.012;5.048;2023-07-31T11:40:06;4.28;;;3.15;;
16660;SDS011;8444;52.012;5.048;2023-07-31T11:42:32;4.45;;;3.20;;
16660;SDS011;8444;52.012;5.048;2023-07-31T11:44:57;4.72;;;3.35;;
16660;SDS011;8444;52.012;5.048;2023-07-31T11:47:22;2.90;;;2.60;;
16660;SDS011;8444;52.012;5.048;2023-07-31T11:49:47;4.50;;;2.40;;
16660;SDS011;8444;52.012;5.048;2023-07-31T11:52:14;3.58;;;2.70;;
16660;SDS011;8444;52.012;5.048;2023-07-31T11:54:39;5.05;;;2.53;;
16660;SDS011;8444;52.012;5.048;2023-07-31T11:57:06;2.83;;;2.30;;
16660;SDS011;8444;52.012;5.048;2023-07-31T11:59:32;3.33;;;2.75;;
16660;SDS011;8444;52.012;5.048;2023-07-31T12:01:57;3.72;;;2.17;;
16660;SDS011;8444;52.012;5.048;2023-07-31T12:04:23;2.60;;;2.10;;
16660;SDS011;8444;52.012;5.048;2023-07-31T12:06:49;2.47;;;2.25;;
16660;SDS011;8444;52.012;5.048;2023-07-31T12:09:15;2.60;;;2.25;;
16660;SDS011;8444;52.012;5.048;2023-07-31T12:11:43;2.40;;;2.08;;
16660;SDS011;8444;52.012;5.048;2023-07-31T12:14:19;2.75;;;2.03;;
16660;SDS011;8444;52.012;5.048;2023-07-31T12:16:44;3.83;;;2.17;;
16660;SDS011;8444;52.012;5.048;2023-07-31T12:19:09;3.97;;;2.50;;
16660;SDS011;8444;52.012;5.048;2023-07-31T12:21:34;2.25;;;2.05;;
16660;SDS011;8444;52.012;5.048;2023-07-31T12:24:00;5.80;;;2.70;;
16660;SDS011;8444;52.012;5.048;2023-07-31T12:26:25;2.47;;;2.10;;
16660;SDS011;8444;52.012;5.048;2023-07-31T12:28:58;3.28;;;2.78;;
16660;SDS011;8444;52.012;5.048;2023-07-31T12:31:23;5.03;;;2.92;;
16660;SDS011;8444;52.012;5.048;2023-07-31T12:33:52;5.03;;;3.20;;
16660;SDS011;8444;52.012;5.048;2023-07-31T12:36:22;5.05;;;2.75;;
16660;SDS011;8444;52.012;5.048;2023-07-31T12:38:47;2.92;;;2.55;;
16660;SDS011;8444;52.012;5.048;2023-07-31T12:41:13;2.55;;;2.35;;
16660;SDS011;8444;52.012;5.048;2023-07-31T12:43:39;4.00;;;2.92;;
16660;SDS011;8444;52.012;5.048;2023-07-31T12:46:04;3.25;;;2.60;;
16660;SDS011;8444;52.012;5.048;2023-07-31T12:48:30;2.85;;;2.42;;
16660;SDS011;8444;52.012;5.048;2023-07-31T12:50:56;3.50;;;2.60;;
16660;SDS011;8444;52.012;5.048;2023-07-31T12:53:21;3.15;;;2.50;;
16660;SDS011;8444;52.012;5.048;2023-07-31T12:55:46;4.13;;;2.38;;
16660;SDS011;8444;52.012;5.048;2023-07-31T12:58:12;3.60;;;2.30;;
16660;SDS011;8444;52.012;5.048;2023-07-31T13:00:37;4.95;;;2.60;;
16660;SDS011;8444;52.012;5.048;2023-07-31T13:03:03;4.28;;;2.25;;
16660;SDS011;8444;52.012;5.048;2023-07-31T13:05:28;2.63;;;2.10;;
16660;SDS011;8444;52.012;5.048;2023-07-31T13:07:53;1.83;;;1.42;;
16660;SDS011;8444;52.012;5.048;2023-07-31T13:10:19;4.47;;;2.40;;
16660;SDS011;8444;52.012;5.048;2023-07-31T13:12:44;1.95;;;1.20;;
16660;SDS011;8444;52.012;5.048;2023-07-31T13:15:09;2.72;;;1.80;;
16660;SDS011;8444;52.012;5.048;2023-07-31T13:17:35;3.50;;;2.10;;
16660;SDS011;8444;52.012;5.048;2023-07-31T13:20:00;1.85;;;1.65;;
16660;SDS011;8444;52.012;5.048;2023-07-31T13:22:26;2.08;;;1.80;;
16660;SDS011;8444;52.012;5.048;2023-07-31T13:24:51;1.70;;;1.50;;
16660;SDS011;8444;52.012;5.048;2023-07-31T13:27:16;2.65;;;1.58;;
16660;SDS011;8444;52.012;5.048;2023-07-31T13:29:46;2.10;;;1.67;;
16660;SDS011;8444;52.012;5.048;2023-07-31T13:32:12;1.92;;;1.73;;
16660;SDS011;8444;52.012;5.048;2023-07-31T13:34:37;2.22;;;1.50;;
16660;SDS011;8444;52.012;5.048;2023-07-31T13:37:02;3.00;;;1.30;;
16660;SDS011;8444;52.012;5.048;2023-07-31T13:39:28;1.92;;;1.58;;
16660;SDS011;8444;52.012;5.048;2023-07-31T13:41:53;1.73;;;1.45;;
16660;SDS011;8444;52.012;5.048;2023-07-31T13:44:18;2.35;;;1.85;;
16660;SDS011;8444;52.012;5.048;2023-07-31T13:46:43;3.10;;;2.08;;
16660;SDS011;8444;52.012;5.048;2023-07-31T13:49:09;2.45;;;1.98;;
16660;SDS011;8444;52.012;5.048;2023-07-31T13:51:34;3.00;;;1.80;;
16660;SDS011;8444;52.012;5.048;2023-07-31T13:53:59;3.20;;;2.30;;
16660;SDS011;8444;52.012;5.048;2023-07-31T13:56:24;4.25;;;2.67;;
16660;SDS011;8444;52.012;5.048;2023-07-31T13:58:50;3.38;;;2.42;;
16660;SDS011;8444;52.012;5.048;2023-07-31T14:01:15;2.50;;;1.88;;
16660;SDS011;8444;52.012;5.048;2023-07-31T14:03:40;3.08;;;2.08;;
16660;SDS011;8444;52.012;5.048;2023-07-31T14:06:05;3.13;;;2.08;;
16660;SDS011;8444;52.012;5.048;2023-07-31T14:08:31;4.88;;;4.05;;
16660;SDS011;8444;52.012;5.048;2023-07-31T14:10:56;6.68;;;5.03;;
16660;SDS011;8444;52.012;5.048;2023-07-31T14:13:21;6.90;;;5.05;;
16660;SDS011;8444;52.012;5.048;2023-07-31T14:15:46;6.10;;;5.10;;
16660;SDS011;8444;52.012;5.048;2023-07-31T14:18:12;5.28;;;4.05;;
16660;SDS011;8444;52.012;5.048;2023-07-31T14:20:37;5.47;;;3.80;;
16660;SDS011;8444;52.012;5.048;2023-07-31T14:23:02;5.60;;;4.53;;
16660;SDS011;8444;52.012;5.048;2023-07-31T14:25:28;4.85;;;4.10;;
16660;SDS011;8444;52.012;5.048;2023-07-31T14:27:53;3.97;;;3.22;;
16660;SDS011;8444;52.012;5.048;2023-07-31T14:30:18;4.88;;;4.38;;
16660;SDS011;8444;52.012;5.048;2023-07-31T14:32:44;5.53;;;4.10;;
16660;SDS011;8444;52.012;5.048;2023-07-31T14:35:09;6.35;;;4.30;;
16660;SDS011;8444;52.012;5.048;2023-07-31T14:37:38;7.25;;;4.38;;
16660;SDS011;8444;52.012;5.048;2023-07-31T14:40:04;6.72;;;4.65;;
16660;SDS011;8444;52.012;5.048;2023-07-31T14:42:29;8.57;;;5.80;;
16660;SDS011;8444;52.012;5.048;2023-07-31T14:44:54;8.48;;;5.22;;
16660;SDS011;8444;52.012;5.048;2023-07-31T14:47:20;6.07;;;4.95;;
16660;SDS011;8444;52.012;5.048;2023-07-31T14:49:45;10.00;;;5.50;;
16660;SDS011;8444;52.012;5.048;2023-07-31T14:52:10;7.22;;;4.75;;
16660;SDS011;8444;52.012;5.048;2023-07-31T14:54:35;6.68;;;5.05;;
16660;SDS011;8444;52.012;5.048;2023-07-31T14:57:01;8.63;;;5.25;;
16660;SDS011;8444;52.012;5.048;2023-07-31T14:59:26;7.10;;;5.25;;
16660;SDS011;8444;52.012;5.048;2023-07-31T15:01:51;6.63;;;4.32;;